Time;durP1;ratioP1;P1;durP2;ratioP2;P2;SDS_P1;SDS_P2;PMS_P1;PMS_P2;Temp;Humidity;BMP_temperature;BMP_pressure;BME280_temperature;BME280_humidity;BME280_pressure;Samples;Min_cycle;Max_cycle;Signal;HPM_P1;HPM_P2
2024/01/02 00:00:41;;;;;;;15.07;9.07;;;;;;;9.61;72.09;94352.72;4192994;28;20101;-70
2024/01/02 00:02:43;;;;;;;10.45;9.15;;;;;;;9.59;71.94;94354.69;4202863;28;20044;-67
2024/01/02 00:04:44;;;;;;;10.27;8.30;;;;;;;9.55;72.40;94358.59;4206494;28;20367;-69
2024/01/02 00:06:48;;;;;;;11.10;8.52;;;;;;;9.56;72.22;94357.63;4203343;28;20177;-71
2024/01/02 00:08:50;;;;;;;9.85;8.75;;;;;;;9.54;72.85;94356.97;4199958;28;20382;-72
2024/01/02 00:10:52;;;;;;;9.48;8.07;;;;;;;9.57;71.77;94351.41;4195991;28;20077;-71
2024/01/02 00:12:55;;;;;;;8.02;7.18;;;;;;;9.60;71.92;94351.09;4193295;28;20056;-71
2024/01/02 00:14:57;;;;;;;8.13;6.95;;;;;;;9.53;72.66;94350.09;4200683;28;20114;-70
2024/01/02 00:16:59;;;;;;;8.70;6.85;;;;;;;9.57;72.33;94349.66;4204089;28;20611;-70
2024/01/02 00:19:00;;;;;;;8.93;6.72;;;;;;;9.58;71.59;94348.66;4201242;28;20080;-72
2024/01/02 00:21:03;;;;;;;6.68;5.75;;;;;;;9.58;72.07;94348.66;4201788;28;20056;-71
2024/01/02 00:23:05;;;;;;;7.80;6.97;;;;;;;9.65;72.02;94354.06;4202680;28;20059;-72
2024/01/02 00:25:07;;;;;;;8.50;6.75;;;;;;;9.66;71.68;94357.47;4198274;28;20044;-71
2024/01/02 00:27:09;;;;;;;9.05;5.97;;;;;;;9.67;71.41;94361.75;4201733;28;20700;-70
2024/01/02 00:29:12;;;;;;;7.32;6.10;;;;;;;9.68;71.68;94358.97;4194451;28;20127;-71
2024/01/02 00:31:14;;;;;;;6.47;5.38;;;;;;;9.69;71.62;94355.38;4203527;28;20053;-71
2024/01/02 00:33:16;;;;;;;8.23;5.70;;;;;;;9.69;71.23;94359.78;4207539;28;20151;-68
2024/01/02 00:35:18;;;;;;;7.45;5.50;;;;;;;9.70;71.26;94357.00;4192809;28;20091;-70
2024/01/02 00:37:20;;;;;;;6.93;5.30;;;;;;;9.71;70.45;94356.03;4206433;28;20127;-70
2024/01/02 00:39:22;;;;;;;7.22;5.13;;;;;;;9.74;70.68;94352.25;4200358;28;20051;-71
2024/01/02 00:41:24;;;;;;;6.88;5.70;;;;;;;9.78;70.88;94358.81;4207653;28;20052;-68
2024/01/02 00:43:25;;;;;;;8.98;5.65;;;;;;;9.83;70.69;94356.53;4210331;28;20082;-70
2024/01/02 00:45:27;;;;;;;6.97;5.80;;;;;;;9.87;70.57;94349.97;4199600;28;20052;-70
2024/01/02 00:47:29;;;;;;;7.07;5.78;;;;;;;9.87;69.82;94354.41;4198282;28;20111;-68
2024/01/02 00:49:31;;;;;;;8.27;6.63;;;;;;;9.92;70.38;94354.75;4197181;28;20049;-72
2024/01/02 00:51:33;;;;;;;6.70;5.65;;;;;;;9.94;69.47;94352.78;4196606;28;20059;-71
2024/01/02 00:53:35;;;;;;;7.85;5.28;;;;;;;9.97;69.85;94348.03;4202081;28;20056;-70
2024/01/02 00:55:37;;;;;;;6.88;5.38;;;;;;;9.96;69.78;94341.16;4197753;28;20554;-71
2024/01/02 00:57:38;;;;;;;6.40;5.30;;;;;;;9.92;70.07;94345.09;4202595;28;20088;-70
2024/01/02 00:59:40;;;;;;;7.18;5.25;;;;;;;10.01;69.97;94340.66;4201449;28;20261;-70
2024/01/02 01:01:42;;;;;;;6.03;5.20;;;;;;;10.05;70.03;94336.75;4196278;28;20137;-71
2024/01/02 01:03:44;;;;;;;7.68;5.53;;;;;;;10.05;70.01;94331.50;4205596;28;20533;-70
2024/01/02 01:05:46;;;;;;;6.95;5.28;;;;;;;10.07;69.81;94337.41;4198835;28;20052;-68
2024/01/02 01:07:48;;;;;;;6.53;5.50;;;;;;;10.05;69.83;94329.69;4198998;28;20084;-70
2024/01/02 01:09:51;;;;;;;5.25;4.63;;;;;;;10.05;70.01;94328.88;4199509;28;20110;-68
2024/01/02 01:11:53;;;;;;;6.53;5.40;;;;;;;10.07;69.92;94336.56;4203487;28;20069;-70
2024/01/02 01:13:55;;;;;;;6.85;5.32;;;;;;;10.09;70.21;94330.19;4201953;28;20134;-70
2024/01/02 01:15:57;;;;;;;6.00;5.15;;;;;;;10.09;70.40;94337.22;4193566;28;20060;-71
2024/01/02 01:17:58;;;;;;;8.10;5.65;;;;;;;10.07;69.51;94334.78;4201288;28;20080;-71
2024/01/02 01:20:01;;;;;;;6.68;4.63;;;;;;;10.02;69.63;94334.44;4205642;28;20380;-71
2024/01/02 01:22:03;;;;;;;5.93;4.80;;;;;;;9.99;69.51;94332.97;4203921;28;20048;-70
2024/01/02 01:24:05;;;;;;;5.50;4.60;;;;;;;10.01;69.71;94332.81;4201969;28;20056;-70
2024/01/02 01:26:07;;;;;;;5.78;4.85;;;;;;;10.05;69.42;94326.28;4204057;28;20048;-70
2024/01/02 01:28:09;;;;;;;5.60;4.72;;;;;;;10.01;69.47;94328.38;4198186;28;20158;-70
2024/01/02 01:30:11;;;;;;;5.82;4.53;;;;;;;10.05;69.13;94331.50;4208735;28;20051;-70
2024/01/02 01:32:14;;;;;;;6.50;5.10;;;;;;;10.08;69.03;94331.16;4204448;28;20071;-69
2024/01/02 01:34:16;;;;;;;5.47;4.55;;;;;;;10.10;69.36;94328.38;4206491;28;20071;-70
2024/01/02 01:36:18;;;;;;;7.88;5.10;;;;;;;10.12;68.96;94329.84;4198266;28;20500;-71
2024/01/02 01:38:20;;;;;;;6.63;5.53;;;;;;;10.08;69.30;94323.31;4208011;28;20109;-71
2024/01/02 01:40:22;;;;;;;5.60;4.50;;;;;;;10.12;68.82;94322.00;4204727;28;20399;-71
2024/01/02 01:42:23;;;;;;;5.95;4.60;;;;;;;10.12;69.26;94329.84;4206221;28;20052;-71
2024/01/02 01:44:25;;;;;;;7.20;5.32;;;;;;;10.15;68.70;94323.47;4204083;28;20136;-74
2024/01/02 01:46:34;;;;;;;5.30;4.25;;;;;;;10.09;68.54;94319.72;4198051;28;20074;-71
2024/01/02 01:48:36;;;;;;;7.13;4.57;;;;;;;10.11;69.01;94320.38;4203313;28;20048;-71
2024/01/02 01:50:41;;;;;;;5.82;4.55;;;;;;;10.07;69.10;94321.69;4210111;28;20554;-72
2024/01/02 01:52:43;;;;;;;5.57;4.40;;;;;;;10.07;68.97;94324.31;4209520;28;20044;-70
2024/01/02 01:54:45;;;;;;;5.53;4.38;;;;;;;10.07;69.34;94323.47;4209838;28;20048;-71
2024/01/02 01:56:47;;;;;;;5.00;4.10;;;;;;;10.09;69.04;94327.59;4199769;28;20124;-71
2024/01/02 01:58:49;;;;;;;5.97;4.60;;;;;;;10.10;68.89;94320.53;4201317;28;20044;-70
2024/01/02 02:00:51;;;;;;;6.25;4.47;;;;;;;10.11;68.74;94332.63;4201501;28;20044;-70
2024/01/02 02:02:53;;;;;;;5.50;4.13;;;;;;;10.12;69.06;94334.28;4201590;28;20097;-71
2024/01/02 02:04:55;;;;;;;6.30;4.72;;;;;;;10.13;68.93;94330.66;4202065;28;20582;-70
2024/01/02 02:06:58;;;;;;;6.07;4.53;;;;;;;10.02;68.63;94330.03;4205034;28;20063;-69
2024/01/02 02:09:00;;;;;;;6.25;4.32;;;;;;;9.75;69.83;94325.94;4196150;28;20052;-71
2024/01/02 02:11:02;;;;;;;10.85;6.57;;;;;;;9.54;70.29;94325.59;4199523;28;20127;-70
2024/01/02 02:13:05;;;;;;;24.88;11.57;;;;;;;9.51;70.72;94321.53;4200833;28;20061;-71
2024/01/02 02:15:07;;;;;;;18.35;11.05;;;;;;;9.47;71.61;94325.44;4200306;28;20055;-71
2024/01/02 02:17:19;;;;;;;10.20;6.22;;;;;;;9.23;72.22;94329.63;4192877;28;20049;-71
2024/01/02 02:19:21;;;;;;;9.82;6.75;;;;;;;9.13;72.87;94328.94;4195729;28;20107;-72
2024/01/02 02:21:23;;;;;;;9.77;6.50;;;;;;;8.95;73.12;94323.03;4202676;28;20079;-71
2024/01/02 02:23:25;;;;;;;11.50;7.60;;;;;;;8.91;73.66;94327.75;4194462;28;20056;-70
2024/01/02 02:25:27;;;;;;;7.30;5.53;;;;;;;8.91;73.93;94324.31;4206516;28;20558;-70
2024/01/02 02:27:30;;;;;;;6.45;4.80;;;;;;;8.73;73.75;94330.47;4197281;28;20207;-69
2024/01/02 02:29:32;;;;;;;5.20;4.30;;;;;;;8.72;73.18;94323.59;4198293;28;20060;-70
2024/01/02 02:31:34;;;;;;;5.97;4.60;;;;;;;8.67;74.05;94312.81;4197700;28;20355;-70
2024/01/02 02:33:36;;;;;;;6.50;5.03;;;;;;;8.77;74.73;94323.09;4208805;28;20097;-70
2024/01/02 02:35:38;;;;;;;4.43;3.42;;;;;;;8.77;73.70;94317.88;4201164;28;20092;-70
2024/01/02 02:37:40;;;;;;;5.80;4.15;;;;;;;8.64;72.98;94317.50;4201603;28;20467;-71
2024/01/02 02:39:42;;;;;;;4.22;3.22;;;;;;;8.56;73.94;94321.72;4207751;28;20112;-68
2024/01/02 02:41:44;;;;;;;4.82;3.58;;;;;;;8.67;73.98;94319.78;4203433;28;20060;-70
2024/01/02 02:43:46;;;;;;;4.97;3.50;;;;;;;8.74;73.37;94318.22;4200530;28;20044;-70
2024/01/02 02:45:47;;;;;;;6.13;3.75;;;;;;;8.82;72.95;94318.25;4199364;28;20052;-70
2024/01/02 02:47:49;;;;;;;8.55;3.85;;;;;;;8.66;73.67;94318.16;4193051;28;20137;-70
2024/01/02 02:49:52;;;;;;;4.68;3.60;;;;;;;8.58;74.09;94314.56;4200754;28;20043;-71
2024/01/02 02:51:54;;;;;;;4.45;3.65;;;;;;;8.44;74.05;94320.34;4205822;28;20058;-70
2024/01/02 02:53:56;;;;;;;5.45;3.97;;;;;;;8.33;75.18;94317.97;4197999;28;20048;-70
2024/01/02 02:55:57;;;;;;;4.97;3.40;;;;;;;8.46;74.22;94321.00;4202398;28;20424;-70
2024/01/02 02:57:59;;;;;;;5.88;3.65;;;;;;;8.61;75.09;94318.66;4197719;28;20052;-70
2024/01/02 03:00:03;;;;;;;5.47;4.05;;;;;;;8.77;74.77;94323.09;4200922;28;20068;-70
2024/01/02 03:02:05;;;;;;;4.75;3.80;;;;;;;8.96;74.11;94325.47;4201451;28;20051;-70
2024/01/02 03:04:07;;;;;;;5.70;2.90;;;;;;;9.10;73.63;94323.22;4205476;28;20055;-68
2024/01/02 03:06:09;;;;;;;4.65;3.67;;;;;;;9.17;73.12;94321.63;4205787;28;20347;-69
2024/01/02 03:08:11;;;;;;;5.05;3.85;;;;;;;9.27;73.61;94311.00;4196043;28;20049;-72
2024/01/02 03:10:17;;;;;;;4.30;2.55;;;;;;;9.17;71.92;94311.97;4206354;28;20062;-70
2024/01/02 03:12:20;;;;;;;3.63;3.00;;;;;;;8.92;72.69;94315.50;4199013;28;20044;-71
2024/01/02 03:14:22;;;;;;;5.07;2.80;;;;;;;8.85;73.15;94315.31;4196857;28;20127;-69
2024/01/02 03:16:24;;;;;;;4.13;3.15;;;;;;;8.84;73.40;94300.63;4195839;28;20142;-72
2024/01/02 03:18:26;;;;;;;4.95;3.63;;;;;;;8.85;73.84;94299.63;4203970;28;20089;-71
2024/01/02 03:20:28;;;;;;;5.72;3.40;;;;;;;8.96;73.70;94303.75;4204726;28;20043;-71
2024/01/02 03:22:30;;;;;;;5.30;3.10;;;;;;;9.12;73.71;94310.81;4197144;28;20516;-71
2024/01/02 03:24:32;;;;;;;5.45;3.20;;;;;;;9.00;73.18;94305.06;4202088;28;20043;-71
2024/01/02 03:26:34;;;;;;;4.93;3.60;;;;;;;8.90;73.21;94307.00;4196717;28;20059;-71
2024/01/02 03:28:36;;;;;;;4.32;3.10;;;;;;;8.91;74.14;94306.03;4195503;28;20040;-72
2024/01/02 03:30:40;;;;;;;4.97;3.30;;;;;;;8.96;74.07;94309.78;4193214;28;20056;-68
2024/01/02 03:32:42;;;;;;;4.00;3.13;;;;;;;8.82;73.93;94308.63;4194545;28;20462;-70
2024/01/02 03:34:44;;;;;;;4.43;3.17;;;;;;;8.62;74.02;94299.38;4198537;28;20136;-69
2024/01/02 03:36:46;;;;;;;4.78;3.33;;;;;;;8.64;74.75;94296.63;4201223;28;20512;-72
2024/01/02 03:38:49;;;;;;;4.10;3.03;;;;;;;8.48;74.02;94298.19;4200134;28;20063;-69
2024/01/02 03:40:51;;;;;;;5.00;2.72;;;;;;;8.44;74.75;94299.47;4197397;28;20075;-70
2024/01/02 03:42:53;;;;;;;4.72;2.65;;;;;;;8.54;75.60;94296.72;4202769;28;20467;-69
2024/01/02 03:44:55;;;;;;;4.28;3.05;;;;;;;8.61;75.08;94301.19;4209027;28;20063;-68
2024/01/02 03:46:57;;;;;;;4.05;2.95;;;;;;;8.42;74.55;94305.81;4192932;28;20052;-71
2024/01/02 03:48:59;;;;;;;4.50;3.03;;;;;;;8.37;75.46;94306.25;4194822;28;20468;-71
2024/01/02 03:51:02;;;;;;;4.07;3.20;;;;;;;8.46;75.49;94309.75;4201170;28;20175;-70
2024/01/02 03:53:04;;;;;;;4.50;3.33;;;;;;;8.37;75.39;94308.88;4198802;28;20184;-71
2024/01/02 03:55:06;;;;;;;6.10;4.57;;;;;;;8.35;75.34;94308.22;4201512;28;20129;-70
2024/01/02 03:57:08;;;;;;;5.47;4.13;;;;;;;8.30;75.83;94300.84;4203954;28;20415;-69
2024/01/02 03:59:09;;;;;;;5.40;4.40;;;;;;;8.20;75.88;94313.19;4208890;28;20047;-70
2024/01/02 04:01:11;;;;;;;6.00;3.30;;;;;;;8.09;76.19;94311.63;4194238;28;20063;-72
2024/01/02 04:03:13;;;;;;;3.53;2.85;;;;;;;8.13;76.67;94315.59;4197959;28;20493;-69
2024/01/02 04:05:15;;;;;;;4.55;3.20;;;;;;;8.10;76.59;94309.84;4195064;28;20103;-70
2024/01/02 04:07:17;;;;;;;6.18;3.78;;;;;;;7.93;76.55;94316.72;4203283;28;20482;-69
2024/01/02 04:09:19;;;;;;;4.20;3.30;;;;;;;7.89;76.86;94313.59;4201631;28;20119;-69
2024/01/02 04:11:21;;;;;;;4.75;3.15;;;;;;;8.01;77.38;94308.97;4200916;28;20469;-71
2024/01/02 04:13:23;;;;;;;4.40;3.20;;;;;;;8.19;77.28;94314.13;4202470;28;20138;-70
2024/01/02 04:15:25;;;;;;;4.25;3.25;;;;;;;8.40;77.02;94308.53;4205367;28;20050;-71
2024/01/02 04:17:27;;;;;;;5.43;3.72;;;;;;;8.57;76.61;94315.50;4204383;28;20123;-70
2024/01/02 04:19:29;;;;;;;3.65;3.25;;;;;;;8.71;74.92;94315.91;4209831;28;20056;-72
2024/01/02 04:21:31;;;;;;;5.15;3.22;;;;;;;8.83;74.54;94325.09;4207366;28;20039;-69
2024/01/02 04:23:33;;;;;;;5.15;3.60;;;;;;;8.87;74.07;94323.00;4209645;28;20051;-71
2024/01/02 04:25:35;;;;;;;3.65;3.10;;;;;;;8.79;73.71;94321.16;4201588;28;20055;-69
2024/01/02 04:27:37;;;;;;;4.82;3.28;;;;;;;8.55;73.89;94314.84;4195730;28;20177;-71
2024/01/02 04:29:39;;;;;;;5.07;3.03;;;;;;;8.48;74.30;94324.28;4207108;28;20090;-70
2024/01/02 04:31:41;;;;;;;3.97;3.25;;;;;;;8.55;74.63;94327.91;4207851;28;20109;-71
2024/01/02 04:33:43;;;;;;;3.42;3.10;;;;;;;8.61;74.72;94324.69;4205040;28;20041;-70
2024/01/02 04:35:45;;;;;;;5.78;3.30;;;;;;;8.70;73.81;94330.75;4204116;28;20063;-73
2024/01/02 04:37:47;;;;;;;3.88;3.08;;;;;;;8.76;73.91;94327.53;4208130;28;20192;-73
2024/01/02 04:39:51;;;;;;;4.40;3.38;;;;;;;8.78;73.86;94328.19;4204346;28;20063;-70
2024/01/02 04:41:53;;;;;;;4.72;3.22;;;;;;;8.83;73.38;94330.31;4201840;28;20086;-70
2024/01/02 04:43:55;;;;;;;7.97;2.95;;;;;;;8.88;73.25;94329.84;4200924;28;20044;-70
2024/01/02 04:45:57;;;;;;;3.25;2.83;;;;;;;8.96;73.31;94335.91;4199795;28;20050;-71
2024/01/02 04:47:58;;;;;;;4.28;2.90;;;;;;;9.03;73.04;94328.25;4199985;28;20513;-70
2024/01/02 04:50:00;;;;;;;4.45;3.00;;;;;;;9.08;72.27;94331.22;4204865;28;20105;-72
2024/01/02 04:52:03;;;;;;;4.00;3.25;;;;;;;9.10;72.34;94331.88;4199453;28;20052;-72
2024/01/02 04:54:05;;;;;;;3.53;2.75;;;;;;;9.09;72.07;94326.81;4207937;28;20047;-74
2024/01/02 04:56:06;;;;;;;3.97;2.83;;;;;;;9.04;71.39;94331.72;4201346;28;20135;-70
2024/01/02 04:58:08;;;;;;;3.63;2.47;;;;;;;9.05;72.22;94331.53;4203337;28;20125;-70
2024/01/02 05:00:11;;;;;;;4.00;3.28;;;;;;;9.06;72.15;94329.75;4208725;28;20071;-71
2024/01/02 05:02:13;;;;;;;5.22;3.20;;;;;;;9.07;72.46;94334.00;4207126;28;20147;-72
2024/01/02 05:04:15;;;;;;;4.40;3.25;;;;;;;8.83;72.11;94332.94;4207586;28;20047;-70
2024/01/02 05:06:16;;;;;;;4.32;3.47;;;;;;;8.49;73.07;94351.22;4207818;28;20542;-71
2024/01/02 05:08:19;;;;;;;5.13;3.35;;;;;;;8.45;73.71;94347.25;4204170;28;20101;-70
2024/01/02 05:10:21;;;;;;;3.80;3.20;;;;;;;8.53;74.59;94340.28;4199002;28;20116;-71
2024/01/02 05:12:23;;;;;;;5.38;3.60;;;;;;;8.59;74.41;94342.28;4206613;28;20043;-71
2024/01/02 05:14:25;;;;;;;4.13;2.92;;;;;;;8.63;73.44;94352.44;4199997;28;20104;-70
2024/01/02 05:16:27;;;;;;;4.57;3.25;;;;;;;8.64;72.89;94346.22;4206350;28;20076;-71
2024/01/02 05:18:29;;;;;;;4.53;3.35;;;;;;;8.66;72.73;94346.91;4195439;28;20041;-71
2024/01/02 05:20:31;;;;;;;3.97;2.97;;;;;;;8.57;72.60;94346.03;4197270;28;20062;-71
2024/01/02 05:22:33;;;;;;;3.97;3.17;;;;;;;8.47;73.25;94355.75;4195866;28;20087;-72
2024/01/02 05:24:35;;;;;;;6.00;3.08;;;;;;;7.94;74.44;94353.09;4205510;28;20079;-70
2024/01/02 05:26:37;;;;;;;4.05;2.80;;;;;;;7.53;75.13;94355.38;4198239;28;20044;-72
2024/01/02 05:28:39;;;;;;;4.65;2.35;;;;;;;6.98;77.60;94365.88;4202317;28;20052;-70
2024/01/02 05:30:41;;;;;;;4.85;3.10;;;;;;;7.16;78.53;94358.06;4205013;28;20102;-69
2024/01/02 05:32:43;;;;;;;3.88;3.13;;;;;;;7.05;78.40;94364.31;4208015;28;20056;-71
2024/01/02 05:34:45;;;;;;;3.47;2.70;;;;;;;7.27;78.77;94368.31;4208737;28;20040;-68
2024/01/02 05:36:47;;;;;;;4.60;3.00;;;;;;;7.31;78.18;94371.41;4211161;28;20485;-70
2024/01/02 05:38:48;;;;;;;4.55;2.70;;;;;;;7.48;77.92;94372.41;4210730;28;20543;-72
2024/01/02 05:40:51;;;;;;;3.22;2.63;;;;;;;7.48;77.21;94372.41;4194490;28;20045;-72
2024/01/02 05:42:53;;;;;;;5.55;1.98;;;;;;;7.52;76.53;94371.16;4194607;28;20083;-70
2024/01/02 05:44:55;;;;;;;3.25;2.17;;;;;;;7.62;76.85;94377.13;4207161;28;20044;-69
2024/01/02 05:46:56;;;;;;;2.50;1.95;;;;;;;7.62;75.80;94378.91;4206812;28;20048;-72
2024/01/02 05:48:58;;;;;;;3.13;2.40;;;;;;;7.64;75.02;94380.41;4197546;28;20048;-70
2024/01/02 05:51:03;;;;;;;2.65;2.10;;;;;;;7.03;76.56;94392.28;4197626;28;20483;-71
2024/01/02 05:53:06;;;;;;;3.92;2.20;;;;;;;6.78;77.42;94400.78;4198795;28;20382;-70
2024/01/02 05:55:09;;;;;;;2.60;1.85;;;;;;;6.79;77.31;94395.41;4178519;28;20049;-71
2024/01/02 05:57:11;;;;;;;2.95;2.17;;;;;;;6.69;78.13;94397.22;4196847;28;20470;-70
2024/01/02 05:59:14;;;;;;;3.22;1.95;;;;;;;6.47;78.14;94403.59;4203768;28;20036;-70
2024/01/02 06:01:16;;;;;;;3.05;1.92;;;;;;;6.43;78.65;94403.09;4207511;28;20434;-71
2024/01/02 06:03:19;;;;;;;3.72;2.03;;;;;;;6.60;79.06;94414.50;4198646;28;20135;-70
2024/01/02 06:05:20;;;;;;;3.40;2.13;;;;;;;6.76;78.23;94413.94;4197399;28;20051;-71
2024/01/02 06:07:22;;;;;;;2.60;1.58;;;;;;;6.66;77.46;94413.94;4199486;28;20044;-70
2024/01/02 06:09:24;;;;;;;2.72;1.95;;;;;;;6.65;77.82;94416.72;4206452;28;20134;-70
2024/01/02 06:11:26;;;;;;;3.45;1.80;;;;;;;6.71;77.92;94426.53;4202305;28;20044;-71
2024/01/02 06:13:28;;;;;;;3.42;1.90;;;;;;;6.75;77.96;94425.28;4189486;28;20049;-72
2024/01/02 06:15:30;;;;;;;2.67;1.77;;;;;;;6.85;77.82;94423.47;4203673;28;20508;-71
2024/01/02 06:17:32;;;;;;;3.85;2.60;;;;;;;6.72;77.33;94428.19;4207476;28;20048;-70
2024/01/02 06:19:34;;;;;;;4.90;2.75;;;;;;;6.62;77.74;94433.41;4208408;28;20123;-71
2024/01/02 06:21:36;;;;;;;3.60;2.22;;;;;;;6.26;79.07;94437.59;4203943;28;20093;-72
2024/01/02 06:23:38;;;;;;;3.13;2.25;;;;;;;6.05;80.19;94440.38;4203310;28;20531;-74
2024/01/02 06:25:51;;;;;;;2.88;2.00;;;;;;;6.23;80.33;94448.28;4202557;28;20163;-71
2024/01/02 06:27:53;;;;;;;2.95;2.28;;;;;;;5.92;79.98;94444.03;4197114;28;20065;-72
2024/01/02 06:29:54;;;;;;;3.65;2.33;;;;;;;5.77;80.03;94454.97;4204725;28;20104;-70
2024/01/02 06:31:56;;;;;;;4.13;2.40;;;;;;;5.65;81.24;94452.50;4205546;28;20039;-70
2024/01/02 06:33:59;;;;;;;3.42;2.78;;;;;;;5.72;81.25;94461.41;4202249;28;20063;-68
2024/01/02 06:36:01;;;;;;;3.20;2.80;;;;;;;5.55;81.87;94464.66;4207335;28;20660;-71
2024/01/02 06:38:03;;;;;;;3.70;2.88;;;;;;;5.64;82.13;94463.03;4208673;28;20075;-70
2024/01/02 06:40:06;;;;;;;3.35;2.78;;;;;;;5.56;82.56;94461.09;4208161;28;20052;-71
2024/01/02 06:42:08;;;;;;;3.55;2.88;;;;;;;5.77;82.86;94466.19;4201218;28;20044;-70
2024/01/02 06:44:12;;;;;;;4.88;3.00;;;;;;;5.72;81.89;94464.00;4194944;28;20048;-71
2024/01/02 06:46:14;;;;;;;4.03;3.25;;;;;;;5.75;82.71;94455.13;4200251;28;20125;-70
2024/01/02 06:48:16;;;;;;;5.22;3.47;;;;;;;5.60;82.50;94467.69;4208947;28;20136;-72
2024/01/02 06:50:18;;;;;;;6.43;4.50;;;;;;;5.48;83.48;94474.75;4197545;28;20454;-70
2024/01/02 06:52:20;;;;;;;4.00;3.22;;;;;;;5.29;83.67;94485.94;4207276;28;20062;-70
2024/01/02 06:54:22;;;;;;;6.88;4.53;;;;;;;5.20;84.17;94489.31;4202471;28;20048;-71
2024/01/02 06:56:25;;;;;;;6.88;5.03;;;;;;;5.04;85.32;94491.59;4193543;28;20650;-70
2024/01/02 06:58:27;;;;;;;7.97;5.55;;;;;;;5.28;85.57;94499.03;4205024;28;20483;-70
2024/01/02 07:00:29;;;;;;;7.95;5.85;;;;;;;5.46;84.04;94496.63;4200593;28;20060;-70
2024/01/02 07:02:32;;;;;;;8.13;4.88;;;;;;;5.67;83.82;94497.34;4202228;28;20123;-71
2024/01/02 07:04:37;;;;;;;8.02;5.30;;;;;;;5.69;83.01;94492.03;4203569;28;20044;-70
2024/01/02 07:06:38;;;;;;;7.15;5.25;;;;;;;5.67;82.87;94494.75;4201575;28;20097;-70
2024/01/02 07:08:40;;;;;;;7.25;4.70;;;;;;;5.77;81.91;94486.19;4204588;28;20055;-72
2024/01/02 07:10:42;;;;;;;6.80;4.85;;;;;;;5.64;81.74;94476.84;4206181;28;20131;-73
2024/01/02 07:12:47;;;;;;;6.18;4.88;;;;;;;5.41;82.63;94476.25;4206869;28;20052;-72
2024/01/02 07:14:49;;;;;;;11.05;5.55;;;;;;;5.16;83.95;94485.31;4195549;28;20055;-72
2024/01/02 07:16:51;;;;;;;7.88;6.47;;;;;;;4.87;85.30;94491.22;4193563;28;20507;-72
2024/01/02 07:18:53;;;;;;;10.60;7.97;;;;;;;4.97;85.91;94490.44;4201440;28;20063;-73
2024/01/02 07:20:54;;;;;;;12.35;9.68;;;;;;;5.02;85.92;94496.06;4208998;28;20111;-71
2024/01/02 07:22:57;;;;;;;9.70;7.90;;;;;;;4.94;85.38;94496.72;4196901;28;20040;-72
2024/01/02 07:24:59;;;;;;;11.38;8.65;;;;;;;5.06;85.40;94500.06;4201576;28;20135;-70
2024/01/02 07:27:19;;;;;;;10.45;8.30;;;;;;;5.02;84.88;94496.06;4195546;28;20064;-71
2024/01/02 07:29:21;;;;;;;8.30;7.10;;;;;;;5.36;85.10;94498.41;4204322;28;20109;-71
2024/01/02 07:31:23;;;;;;;7.07;6.32;;;;;;;5.62;84.52;94493.53;4200976;28;20544;-72
2024/01/02 07:33:25;;;;;;;6.00;4.10;;;;;;;5.83;83.67;94494.25;4206389;28;20136;-71
2024/01/02 07:35:27;;;;;;;7.10;5.15;;;;;;;6.05;82.26;94492.38;4204609;28;20482;-71
2024/01/02 07:37:32;;;;;;;5.88;4.75;;;;;;;6.25;81.96;94501.00;4194366;28;20052;-70
2024/01/02 07:39:34;;;;;;;5.47;4.55;;;;;;;6.26;80.51;94502.63;4206310;28;20127;-73
2024/01/02 07:41:35;;;;;;;5.32;3.85;;;;;;;6.05;79.79;94505.38;4205420;28;20052;-71
2024/01/02 07:43:38;;;;;;;5.97;4.68;;;;;;;5.88;81.05;94514.63;4204820;28;20075;-70
2024/01/02 07:45:39;;;;;;;7.03;5.25;;;;;;;5.72;82.26;94518.59;4204818;28;20056;-71
2024/01/02 07:47:41;;;;;;;11.95;7.55;;;;;;;5.56;82.02;94520.06;4197497;28;20131;-73
2024/01/02 07:49:43;;;;;;;9.35;8.02;;;;;;;5.57;82.48;94514.72;4199248;28;20060;-72
2024/01/02 07:51:46;;;;;;;9.35;8.32;;;;;;;5.44;82.15;94524.50;4195287;28;20048;-73
2024/01/02 07:53:47;;;;;;;10.50;8.77;;;;;;;5.23;83.08;94519.41;4202573;28;20124;-72
2024/01/02 07:55:49;;;;;;;14.45;12.10;;;;;;;5.20;84.19;94523.06;4204021;28;20044;-69
2024/01/02 07:57:51;;;;;;;14.02;12.05;;;;;;;5.42;84.19;94526.41;4199742;28;20120;-72
2024/01/02 07:59:53;;;;;;;15.18;11.68;;;;;;;5.44;83.58;94524.50;4204723;28;20070;-70
2024/01/02 08:01:55;;;;;;;13.70;9.98;;;;;;;5.43;82.58;94523.69;4205900;28;20048;-72
2024/01/02 08:03:56;;;;;;;11.63;8.93;;;;;;;5.58;83.10;94526.75;4206202;28;20468;-70
2024/01/02 08:05:58;;;;;;;8.77;6.75;;;;;;;5.39;82.67;94532.72;4198071;28;20049;-71
2024/01/02 08:08:05;;;;;;;9.93;6.68;;;;;;;5.21;83.05;94526.50;4208069;28;20509;-72
2024/01/02 08:10:08;;;;;;;10.40;8.00;;;;;;;5.22;83.08;94528.13;4206182;28;20060;-71
2024/01/02 08:12:10;;;;;;;17.92;16.13;;;;;;;5.20;83.27;94533.44;4206761;28;20060;-71
2024/01/02 08:14:14;;;;;;;19.00;17.05;;;;;;;5.18;82.91;94539.72;4208898;28;20208;-73
2024/01/02 08:16:16;;;;;;;20.33;18.38;;;;;;;5.13;82.75;94543.53;4205358;28;20071;-75
2024/01/02 08:18:18;;;;;;;22.65;18.95;;;;;;;5.15;83.14;94540.00;4197162;28;20130;-71
2024/01/02 08:20:20;;;;;;;18.08;16.27;;;;;;;5.20;82.72;94536.03;4207102;28;20106;-73
2024/01/02 08:22:22;;;;;;;14.85;13.35;;;;;;;5.16;82.83;94539.84;4201624;28;20154;-71
2024/01/02 08:24:24;;;;;;;16.52;14.80;;;;;;;5.04;83.26;94535.72;4197790;28;20055;-71
2024/01/02 08:26:26;;;;;;;16.98;14.27;;;;;;;4.95;83.68;94539.06;4201864;28;20044;-73
2024/01/02 08:28:28;;;;;;;15.65;13.85;;;;;;;5.05;83.58;94539.94;4192172;28;20063;-72
2024/01/02 08:30:30;;;;;;;20.30;15.10;;;;;;;5.22;83.36;94535.94;4192108;28;20681;-73
2024/01/02 08:32:32;;;;;;;18.30;12.75;;;;;;;5.34;83.30;94542.69;4203400;28;20052;-73
2024/01/02 08:34:34;;;;;;;15.93;13.13;;;;;;;5.36;82.76;94532.97;4201904;28;20109;-72
2024/01/02 08:36:36;;;;;;;18.52;13.15;;;;;;;5.39;82.57;94542.28;4207386;28;20103;-73
2024/01/02 08:38:40;;;;;;;15.60;10.88;;;;;;;5.25;82.63;94539.09;4206796;28;20056;-74
2024/01/02 08:40:42;;;;;;;20.42;14.45;;;;;;;5.24;82.86;94539.22;4193976;28;20060;-71
2024/01/02 08:42:44;;;;;;;20.10;13.55;;;;;;;5.31;83.05;94537.72;4208273;28;20168;-71
2024/01/02 08:44:46;;;;;;;31.15;17.95;;;;;;;5.41;82.63;94536.00;4197193;28;20159;-72
2024/01/02 08:46:48;;;;;;;19.02;12.35;;;;;;;5.54;82.61;94536.56;4205556;28;20055;-70
2024/01/02 08:48:49;;;;;;;17.85;11.63;;;;;;;5.51;82.11;94539.47;4192798;28;20048;-74
2024/01/02 08:50:51;;;;;;;8.43;6.32;;;;;;;5.39;82.07;94542.28;4191800;28;20765;-74
2024/01/02 08:52:53;;;;;;;15.25;9.80;;;;;;;5.15;82.15;94538.22;4202091;28;20048;-70
2024/01/02 08:54:55;;;;;;;11.65;7.72;;;;;;;4.98;82.91;94529.25;4196149;28;20048;-72
2024/01/02 08:56:57;;;;;;;8.57;6.38;;;;;;;5.00;82.36;94540.34;4200108;28;20076;-72
2024/01/02 08:58:59;;;;;;;12.77;8.38;;;;;;;5.07;83.27;94543.22;4194237;28;20044;-70
2024/01/02 09:01:01;;;;;;;13.73;9.43;;;;;;;5.11;83.07;94540.25;4197051;28;20069;-72
2024/01/02 09:03:04;;;;;;;10.57;7.35;;;;;;;5.26;83.06;94542.50;4204208;28;20054;-68
2024/01/02 09:05:06;;;;;;;12.68;8.93;;;;;;;5.18;82.54;94534.53;4198605;28;20063;-69
2024/01/02 09:07:09;;;;;;;11.15;8.95;;;;;;;5.29;81.94;94543.06;4200587;28;20048;-70
2024/01/02 09:09:11;;;;;;;24.48;21.98;;;;;;;5.45;82.13;94533.97;4199179;28;20472;-71
2024/01/02 09:11:15;;;;;;;33.65;30.20;;;;;;;5.24;81.81;94536.63;4207313;28;20527;-71
2024/01/02 09:13:18;;;;;;;;;;;;;;;5.51;81.90;94523.06;4207728;28;20301;-72
2024/01/02 09:15:20;;;;;;;28.63;25.80;;;;;;;5.60;81.67;94526.63;4210332;28;20429;-70
2024/01/02 09:17:22;;;;;;;27.45;24.05;;;;;;;5.84;81.29;94526.25;4207411;28;20134;-74
2024/01/02 09:19:24;;;;;;;19.30;16.98;;;;;;;5.78;80.63;94525.00;4204967;28;20044;-72
2024/01/02 09:21:26;;;;;;;17.98;14.73;;;;;;;5.74;80.68;94521.03;4203241;28;20052;-72
2024/01/02 09:23:28;;;;;;;17.33;12.43;;;;;;;5.73;80.63;94530.63;4203430;28;20139;-71
2024/01/02 09:25:31;;;;;;;11.60;9.80;;;;;;;5.68;80.62;94527.59;4206599;28;20052;-71
2024/01/02 09:27:34;;;;;;;15.82;11.43;;;;;;;5.88;80.93;94522.44;4203450;28;20053;-71
2024/01/02 09:29:36;;;;;;;10.75;8.10;;;;;;;5.76;78.96;94526.91;4207940;28;20399;-71
2024/01/02 09:31:42;;;;;;;11.07;7.90;;;;;;;5.89;79.61;94524.06;4193615;28;20053;-72
2024/01/02 09:33:45;;;;;;;12.02;8.82;;;;;;;5.88;79.19;94523.25;4202807;28;20077;-70
2024/01/02 09:35:47;;;;;;;19.05;9.68;;;;;;;5.79;78.21;94518.06;4207639;28;20127;-69
2024/01/02 09:37:49;;;;;;;13.52;9.40;;;;;;;5.88;78.88;94519.84;4198630;28;20052;-70
2024/01/02 09:39:53;;;;;;;12.68;7.90;;;;;;;6.06;79.29;94523.44;4201964;28;20277;-71